Time;durP1;ratioP1;P1;durP2;ratioP2;P2;SDS_P1;SDS_P2;PMS_P1;PMS_P2;Temp;Humidity;BMP_temperature;BMP_pressure;BME280_temperature;BME280_humidity;BME280_pressure;Samples;Min_cycle;Max_cycle;Signal;HPM_P1;HPM_P2
2022/05/01 00:00:15;;;;;;;33.50;24.03;;;10.60;99.90;;;;;;5178447;27;20447;-59
2022/05/01 00:02:43;;;;;;;37.20;24.87;;;10.60;99.90;;;;;;5178861;27;20447;-58
2022/05/01 00:05:10;;;;;;;33.10;25.87;;;10.60;99.90;;;;;;5178409;27;20444;-57
2022/05/01 00:07:38;;;;;;;29.43;22.17;;;10.50;99.90;;;;;;5178293;27;21033;-59
2022/05/01 00:10:06;;;;;;;32.00;25.80;;;10.50;99.90;;;;;;5178455;27;20437;-58
2022/05/01 00:12:34;;;;;;;29.60;23.77;;;10.50;99.90;;;;;;5178313;27;20534;-58
2022/05/01 00:15:01;;;;;;;34.33;25.13;;;10.50;99.90;;;;;;5178030;27;20456;-58
2022/05/01 00:17:28;;;;;;;38.57;25.50;;;10.50;99.90;;;;;;5178087;27;20919;-58
2022/05/01 00:19:56;;;;;;;40.87;25.03;;;10.40;99.90;;;;;;5178574;27;20521;-58
2022/05/01 00:22:24;;;;;;;35.03;27.13;;;10.50;99.90;;;;;;5177971;27;20480;-58
2022/05/01 00:24:51;;;;;;;34.90;25.30;;;10.40;99.90;;;;;;5178309;27;20538;-58
2022/05/01 00:27:18;;;;;;;45.27;25.93;;;10.50;99.90;;;;;;5178072;27;20462;-59
2022/05/01 00:29:45;;;;;;;34.93;24.60;;;10.50;99.90;;;;;;5177817;27;20464;-58
2022/05/01 00:32:13;;;;;;;37.80;26.10;;;10.50;99.90;;;;;;5177862;27;20436;-58
2022/05/01 00:37:26;;;;;;;34.33;26.27;;;10.50;99.90;;;;;;5177957;27;20400;-58
2022/05/01 00:39:53;;;;;;;35.60;24.87;;;10.50;99.90;;;;;;5178073;27;20456;-59
2022/05/01 00:42:21;;;;;;;33.87;25.40;;;10.40;99.90;;;;;;5177941;27;20487;-59
2022/05/01 00:44:48;;;;;;;39.23;26.10;;;10.40;99.90;;;;;;5177938;27;20442;-58
2022/05/01 00:47:16;;;;;;;38.70;26.27;;;10.40;99.90;;;;;;5177604;27;20934;-58
2022/05/01 00:49:43;;;;;;;37.00;25.77;;;10.40;99.90;;;;;;5177817;27;20459;-58
2022/05/01 00:52:11;;;;;;;36.17;26.73;;;10.40;99.90;;;;;;5177541;27;20443;-58
2022/05/01 00:54:43;;;;;;;39.87;26.70;;;10.30;99.90;;;;;;5177478;27;20968;-58
2022/05/01 00:57:11;;;;;;;38.50;27.70;;;10.30;99.90;;;;;;5177596;27;20972;-58
2022/05/01 00:59:39;;;;;;;38.27;26.90;;;10.30;99.90;;;;;;5177369;27;20479;-58
2022/05/01 01:02:08;;;;;;;43.60;26.10;;;10.40;99.90;;;;;;5177301;27;20478;-58
2022/05/01 01:04:35;;;;;;;38.90;25.43;;;10.50;99.90;;;;;;5177176;27;20440;-59
2022/05/01 01:07:04;;;;;;;38.80;26.60;;;10.40;99.90;;;;;;5177497;27;20804;-59
2022/05/01 01:09:33;;;;;;;35.93;25.33;;;10.50;99.90;;;;;;5177519;27;20551;-60
2022/05/01 01:14:46;;;;;;;38.70;27.00;;;10.40;99.90;;;;;;5176920;27;20427;-59
2022/05/01 01:17:14;;;;;;;34.27;24.70;;;10.40;99.90;;;;;;5177314;27;20448;-59
2022/05/01 01:19:41;;;;;;;35.77;25.33;;;10.40;99.90;;;;;;5177275;27;20459;-59
2022/05/01 01:22:10;;;;;;;42.03;27.70;;;10.40;99.90;;;;;;5176718;27;20475;-59
2022/05/01 01:24:43;;;;;;;38.00;27.07;;;10.50;99.90;;;;;;5176812;27;20454;-59
2022/05/01 01:27:10;;;;;;;43.90;27.13;;;10.40;99.90;;;;;;5176686;27;20820;-59
2022/05/01 01:32:25;;;;;;;34.90;25.93;;;10.30;99.90;;;;;;5177035;27;20513;-59
2022/05/01 01:34:53;;;;;;;30.47;24.10;;;10.30;99.90;;;;;;5176964;27;20807;-59
2022/05/01 01:37:24;;;;;;;38.33;25.07;;;10.30;99.90;;;;;;5176907;27;20472;-59
2022/05/01 01:39:53;;;;;;;34.53;25.70;;;10.40;99.90;;;;;;5176639;27;20424;-59
2022/05/01 01:42:21;;;;;;;36.83;26.50;;;10.40;99.90;;;;;;5176386;27;20480;-58
2022/05/01 01:44:50;;;;;;;37.50;29.80;;;10.40;99.90;;;;;;5176477;27;20945;-59
2022/05/01 01:47:19;;;;;;;40.53;27.43;;;10.40;99.90;;;;;;5176406;27;20523;-59
2022/05/01 01:49:46;;;;;;;32.50;25.17;;;10.50;99.90;;;;;;5176345;27;20460;-58
2022/05/01 01:52:13;;;;;;;40.07;28.30;;;10.60;99.90;;;;;;5176421;27;20442;-58
2022/05/01 01:54:42;;;;;;;38.97;26.20;;;10.70;99.90;;;;;;5176604;27;20466;-59
2022/05/01 01:57:09;;;;;;;35.27;26.07;;;10.60;99.90;;;;;;5176495;27;20967;-58
2022/05/01 01:59:36;;;;;;;32.47;25.20;;;10.50;99.90;;;;;;5176183;27;20463;-59
2022/05/01 02:02:03;;;;;;;33.03;25.07;;;10.40;99.90;;;;;;5176376;27;20475;-59
2022/05/01 02:04:31;;;;;;;35.67;25.40;;;10.40;99.90;;;;;;5176491;27;20454;-59
2022/05/01 02:06:58;;;;;;;38.47;25.73;;;10.50;99.90;;;;;;5176099;27;20534;-58
2022/05/01 02:09:25;;;;;;;31.33;25.03;;;10.50;99.90;;;;;;5175959;27;20995;-59
2022/05/01 02:11:54;;;;;;;34.10;25.30;;;10.50;99.90;;;;;;5176399;27;20436;-59
2022/05/01 02:14:21;;;;;;;35.50;26.00;;;10.50;99.90;;;;;;5175896;27;20448;-59
2022/05/01 02:16:48;;;;;;;33.43;23.80;;;10.60;99.90;;;;;;5176262;27;20446;-58
2022/05/01 02:19:16;;;;;;;37.10;25.23;;;10.60;99.90;;;;;;5176230;27;20464;-58
2022/05/01 02:21:43;;;;;;;37.10;24.67;;;10.70;99.90;;;;;;5176139;27;20476;-59
2022/05/01 02:24:12;;;;;;;34.53;25.37;;;10.70;99.90;;;;;;5175851;27;20444;-59
2022/05/01 02:26:40;;;;;;;35.33;25.77;;;10.70;99.90;;;;;;5174987;27;20516;-58
2022/05/01 02:29:10;;;;;;;39.50;23.00;;;10.60;99.90;;;;;;5176385;27;20456;-60
2022/05/01 02:31:39;;;;;;;37.27;24.47;;;10.50;99.90;;;;;;5175780;27;20443;-58
2022/05/01 02:34:06;;;;;;;42.73;25.47;;;10.30;99.90;;;;;;5175987;27;20458;-58
2022/05/01 02:36:34;;;;;;;33.50;25.40;;;10.20;99.90;;;;;;5176138;27;20439;-60
2022/05/01 02:39:01;;;;;;;33.87;24.20;;;10.20;99.90;;;;;;5175961;27;20456;-59
2022/05/01 02:41:29;;;;;;;37.40;25.00;;;10.20;99.90;;;;;;5175930;27;20570;-58
2022/05/01 02:43:56;;;;;;;34.30;23.40;;;10.20;99.90;;;;;;5176098;27;20857;-60
2022/05/01 02:46:26;;;;;;;33.13;22.93;;;10.20;99.90;;;;;;5175549;27;20444;-59
2022/05/01 02:48:53;;;;;;;40.40;24.33;;;10.00;99.90;;;;;;5175551;27;20519;-59
2022/05/01 02:51:20;;;;;;;37.70;27.00;;;10.10;99.90;;;;;;5175715;27;20985;-58
2022/05/01 02:53:48;;;;;;;30.97;22.50;;;10.00;99.90;;;;;;5175891;27;20447;-58
2022/05/01 02:56:15;;;;;;;36.27;26.10;;;10.10;99.90;;;;;;5175763;27;20444;-58
2022/05/01 02:58:42;;;;;;;35.80;24.67;;;10.20;99.90;;;;;;5175899;27;20467;-58
2022/05/01 03:01:09;;;;;;;36.60;24.73;;;10.30;99.90;;;;;;5175441;27;20444;-58
2022/05/01 03:03:38;;;;;;;32.07;23.10;;;10.30;99.90;;;;;;5175466;27;20451;-58
2022/05/01 03:06:05;;;;;;;33.67;24.60;;;10.10;99.90;;;;;;5176032;27;20926;-58
2022/05/01 03:08:32;;;;;;;42.87;25.30;;;10.10;99.90;;;;;;5175431;27;20815;-60
2022/05/01 03:11:00;;;;;;;32.00;24.20;;;10.20;99.90;;;;;;5179268;27;20522;-59
2022/05/01 03:13:28;;;;;;;39.50;24.63;;;10.10;99.90;;;;;;5179751;27;20459;-59
2022/05/01 03:15:55;;;;;;;33.90;24.20;;;10.20;99.90;;;;;;5179763;27;20453;-59
2022/05/01 03:23:53;;;;;;;35.80;24.33;;;10.20;99.90;;;;;;5179442;27;20479;-59
2022/05/01 03:26:20;;;;;;;35.10;24.60;;;10.10;99.90;;;;;;5178923;27;20459;-59
2022/05/01 03:28:47;;;;;;;33.43;25.57;;;10.00;99.90;;;;;;5179532;27;20456;-58
2022/05/01 03:31:15;;;;;;;37.97;24.73;;;10.10;99.90;;;;;;5179447;27;20454;-58
2022/05/01 03:33:42;;;;;;;40.07;26.77;;;10.30;99.90;;;;;;5179066;27;20447;-59
2022/05/01 03:36:11;;;;;;;42.07;26.63;;;10.30;99.90;;;;;;5179449;27;20512;-59
2022/05/01 03:38:41;;;;;;;33.50;23.87;;;10.20;99.90;;;;;;5179247;27;20499;-59
2022/05/01 03:41:13;;;;;;;45.37;27.90;;;10.20;99.90;;;;;;5178895;27;20806;-58
2022/05/01 03:43:40;;;;;;;38.37;28.67;;;10.10;99.90;;;;;;5179056;27;20949;-59
2022/05/01 03:46:08;;;;;;;39.27;27.20;;;10.20;99.90;;;;;;5178754;27;20929;-59
2022/05/01 03:48:36;;;;;;;38.40;26.00;;;10.10;99.90;;;;;;5178989;27;20460;-59
2022/05/01 03:51:03;;;;;;;43.47;28.30;;;10.10;99.90;;;;;;5178700;27;20535;-59
2022/05/01 03:53:32;;;;;;;38.50;26.70;;;10.10;99.90;;;;;;5178750;27;20944;-60
2022/05/01 03:55:59;;;;;;;33.83;26.77;;;10.20;99.90;;;;;;5178788;27;20454;-58
2022/05/01 03:58:29;;;;;;;41.17;27.30;;;10.30;99.90;;;;;;5178545;27;20470;-58
2022/05/01 04:00:56;;;;;;;43.00;25.50;;;10.40;99.90;;;;;;5178565;27;20439;-58
2022/05/01 04:03:24;;;;;;;37.77;25.80;;;10.30;99.90;;;;;;5178713;27;20559;-60
2022/05/01 04:05:51;;;;;;;37.93;26.50;;;10.20;99.90;;;;;;5178749;27;20483;-59
2022/05/01 04:08:18;;;;;;;39.90;25.70;;;10.30;99.90;;;;;;5178430;27;20965;-59
2022/05/01 04:10:47;;;;;;;40.20;27.10;;;10.30;99.90;;;;;;5178275;27;20930;-59
2022/05/01 04:13:15;;;;;;;33.50;23.20;;;10.30;99.90;;;;;;5178265;27;20526;-59
2022/05/01 04:15:43;;;;;;;36.37;24.43;;;10.30;99.90;;;;;;5178447;27;20424;-59
2022/05/01 04:18:12;;;;;;;37.90;26.80;;;10.50;99.90;;;;;;5178424;27;20463;-59
2022/05/01 04:20:39;;;;;;;38.10;24.63;;;10.40;99.90;;;;;;5178110;27;20450;-59
2022/05/01 04:23:07;;;;;;;35.17;24.00;;;10.20;99.90;;;;;;5178102;27;21016;-59
2022/05/01 04:25:35;;;;;;;31.70;23.53;;;10.20;99.90;;;;;;5178079;27;20883;-59
2022/05/01 04:28:05;;;;;;;34.83;24.60;;;10.10;99.90;;;;;;5177676;27;21022;-59
2022/05/01 04:30:33;;;;;;;32.50;24.23;;;10.10;99.90;;;;;;5178310;27;20436;-58
2022/05/01 04:33:03;;;;;;;34.30;23.53;;;10.10;99.90;;;;;;5178239;27;20440;-59
2022/05/01 04:35:32;;;;;;;38.37;25.13;;;10.00;99.90;;;;;;5177902;27;20539;-58
2022/05/01 04:38:00;;;;;;;35.67;23.80;;;9.90;99.90;;;;;;5178077;27;20492;-58
2022/05/01 04:40:29;;;;;;;34.33;23.87;;;9.90;99.90;;;;;;5178145;27;20440;-60
2022/05/01 04:43:03;;;;;;;38.17;23.73;;;10.00;99.90;;;;;;5177977;27;20488;-59
2022/05/01 04:45:31;;;;;;;31.30;22.43;;;10.00;99.90;;;;;;5177681;27;20429;-59
2022/05/01 04:47:58;;;;;;;35.57;24.90;;;10.20;99.90;;;;;;5177877;27;20485;-59
2022/05/01 04:50:27;;;;;;;30.17;23.30;;;10.20;99.90;;;;;;5178000;27;20462;-58
2022/05/01 04:52:55;;;;;;;31.87;23.40;;;10.20;99.90;;;;;;5177607;27;20433;-59
2022/05/01 04:55:22;;;;;;;31.47;23.40;;;10.20;99.90;;;;;;5177735;27;20447;-59
2022/05/01 04:57:50;;;;;;;31.93;24.80;;;10.20;99.90;;;;;;5177888;27;20468;-59
2022/05/01 05:00:19;;;;;;;30.13;23.50;;;10.20;99.90;;;;;;5177338;27;20440;-59
2022/05/01 05:02:49;;;;;;;30.53;22.90;;;10.10;99.90;;;;;;5177417;27;20487;-60
2022/05/01 05:05:16;;;;;;;37.50;22.47;;;10.30;99.90;;;;;;5177366;27;20539;-59
2022/05/01 05:07:44;;;;;;;31.47;23.17;;;10.20;99.90;;;;;;5177154;27;20475;-60
2022/05/01 05:10:11;;;;;;;31.53;23.80;;;10.30;99.90;;;;;;5177147;27;20945;-60
2022/05/01 05:12:42;;;;;;;31.90;23.50;;;10.50;99.90;;;;;;5177126;27;20946;-59
2022/05/01 05:15:10;;;;;;;36.17;25.50;;;10.50;99.90;;;;;;5177458;27;20447;-59
2022/05/01 05:17:39;;;;;;;29.23;23.70;;;10.60;99.90;;;;;;5176900;27;20447;-60
2022/05/01 05:20:08;;;;;;;31.20;23.40;;;10.60;99.90;;;;;;5176988;27;20526;-58
2022/05/01 05:22:35;;;;;;;35.17;24.07;;;10.50;99.90;;;;;;5177237;27;20562;-59
2022/05/01 05:25:03;;;;;;;35.53;24.30;;;10.50;99.90;;;;;;5177126;27;20444;-59
2022/05/01 05:27:31;;;;;;;30.17;23.03;;;10.60;99.90;;;;;;5176546;27;20507;-59
2022/05/01 05:29:59;;;;;;;42.13;24.40;;;10.50;99.90;;;;;;5177152;27;20471;-59
2022/05/01 05:32:26;;;;;;;37.23;25.57;;;10.60;99.90;;;;;;5176232;27;20444;-59
2022/05/01 05:34:55;;;;;;;35.00;25.50;;;10.70;99.90;;;;;;5176677;27;20451;-59
2022/05/01 05:37:27;;;;;;;32.13;24.40;;;10.60;99.90;;;;;;5177065;27;20997;-59
2022/05/01 05:39:54;;;;;;;34.33;25.27;;;10.50;99.90;;;;;;5176937;27;20531;-60
2022/05/01 05:42:21;;;;;;;32.37;24.43;;;10.50;99.90;;;;;;5176760;27;20544;-59
2022/05/01 05:44:48;;;;;;;33.87;26.00;;;10.70;99.90;;;;;;5176408;27;20912;-59
2022/05/01 05:47:15;;;;;;;33.50;23.63;;;10.70;99.90;;;;;;5176323;27;20544;-59
2022/05/01 05:49:43;;;;;;;33.60;24.63;;;10.70;99.90;;;;;;5176615;27;20499;-59
2022/05/01 05:52:11;;;;;;;34.10;25.60;;;10.70;99.90;;;;;;5176324;27;20526;-59
2022/05/01 05:54:39;;;;;;;31.83;24.40;;;10.40;99.90;;;;;;5176682;27;20444;-60
2022/05/01 05:57:06;;;;;;;35.97;25.10;;;10.40;99.90;;;;;;5176358;27;20546;-59
2022/05/01 05:59:33;;;;;;;34.57;25.77;;;10.40;99.90;;;;;;5176423;27;20459;-59
2022/05/01 06:02:02;;;;;;;33.57;24.80;;;10.40;99.90;;;;;;5176470;27;20466;-59
2022/05/01 06:04:29;;;;;;;31.10;25.57;;;10.60;99.90;;;;;;5176462;27;20471;-59
2022/05/01 06:06:56;;;;;;;32.53;24.30;;;10.60;99.90;;;;;;5176415;27;20791;-59
2022/05/01 06:09:25;;;;;;;31.20;24.57;;;10.70;99.90;;;;;;5176416;27;20475;-59
2022/05/01 06:11:52;;;;;;;34.93;24.20;;;10.50;99.90;;;;;;5176444;27;20424;-59
2022/05/01 06:14:20;;;;;;;27.57;23.17;;;10.40;99.90;;;;;;5176267;27;20450;-59
2022/05/01 06:16:47;;;;;;;30.10;22.70;;;10.50;99.90;;;;;;5176296;27;20500;-59
2022/05/01 06:19:15;;;;;;;32.83;24.63;;;10.50;99.90;;;;;;5176295;27;20468;-58
2022/05/01 06:21:42;;;;;;;29.63;22.57;;;10.50;99.90;;;;;;5176188;27;20534;-59
2022/05/01 06:24:09;;;;;;;31.67;23.50;;;10.60;99.90;;;;;;5176138;27;20476;-58
2022/05/01 06:26:38;;;;;;;32.20;24.00;;;10.70;99.90;;;;;;5175940;27;20567;-58
2022/05/01 06:29:05;;;;;;;31.23;22.17;;;10.80;99.90;;;;;;5176023;27;20821;-59
2022/05/01 06:31:32;;;;;;;38.20;23.10;;;10.90;99.90;;;;;;5175845;27;20801;-59
2022/05/01 06:34:00;;;;;;;29.83;23.27;;;10.80;99.90;;;;;;5176199;27;20436;-59
2022/05/01 06:36:27;;;;;;;27.70;22.77;;;10.80;99.90;;;;;;5175751;27;20795;-58
2022/05/01 06:38:54;;;;;;;31.60;25.17;;;10.90;99.90;;;;;;5175657;27;20856;-58
2022/05/01 06:41:21;;;;;;;32.23;23.67;;;10.90;99.90;;;;;;5176122;27;20440;-58
2022/05/01 06:43:50;;;;;;;33.37;24.57;;;10.80;99.90;;;;;;5177555;27;20502;-58
2022/05/01 06:46:17;;;;;;;31.90;23.60;;;10.70;99.90;;;;;;5180152;27;20451;-58
2022/05/01 06:48:44;;;;;;;33.27;22.50;;;10.90;99.90;;;;;;5180355;27;20811;-58
2022/05/01 06:51:11;;;;;;;31.27;22.83;;;11.00;99.90;;;;;;5179877;27;20925;-58
2022/05/01 06:53:39;;;;;;;29.53;21.27;;;11.00;99.90;;;;;;5179945;27;20464;-58
2022/05/01 06:56:06;;;;;;;32.27;22.90;;;11.00;99.90;;;;;;5179831;27;20444;-58
2022/05/01 06:58:35;;;;;;;28.50;21.47;;;11.10;99.90;;;;;;5179725;27;20988;-57
2022/05/01 07:01:03;;;;;;;27.50;22.23;;;11.10;99.90;;;;;;5179986;27;20444;-58
2022/05/01 07:03:30;;;;;;;26.10;20.33;;;11.20;99.90;;;;;;5180024;27;20900;-58
2022/05/01 07:06:00;;;;;;;26.97;22.37;;;11.20;99.90;;;;;;5180201;27;20440;-58
2022/05/01 07:08:27;;;;;;;30.57;21.10;;;11.30;99.90;;;;;;5179780;27;20466;-58
2022/05/01 07:10:55;;;;;;;27.67;20.97;;;11.30;99.90;;;;;;5179590;27;20428;-58
2022/05/01 07:13:22;;;;;;;27.60;19.97;;;11.50;99.90;;;;;;5179643;27;20436;-59
2022/05/01 07:15:49;;;;;;;30.73;20.13;;;11.70;99.90;;;;;;5179483;27;20941;-58
2022/05/01 07:18:18;;;;;;;29.03;19.63;;;11.90;99.90;;;;;;5179181;27;20981;-58
2022/05/01 07:20:47;;;;;;;24.73;20.00;;;12.00;99.90;;;;;;5179419;27;20526;-58
2022/05/01 07:23:14;;;;;;;27.90;21.60;;;11.70;99.90;;;;;;5179555;27;20908;-58
2022/05/01 07:25:41;;;;;;;25.80;18.83;;;11.50;99.90;;;;;;5179218;27;20530;-59
2022/05/01 07:28:08;;;;;;;29.37;22.00;;;11.40;99.90;;;;;;5178981;27;20479;-59
2022/05/01 07:30:35;;;;;;;31.50;20.27;;;11.50;99.90;;;;;;5179115;27;21016;-59
2022/05/01 07:33:02;;;;;;;25.57;19.10;;;11.50;99.90;;;;;;5179047;27;20522;-59
2022/05/01 07:35:31;;;;;;;28.40;19.03;;;11.40;99.90;;;;;;5179058;27;20446;-59
2022/05/01 07:37:58;;;;;;;28.50;18.53;;;11.40;99.90;;;;;;5179196;27;20495;-59
2022/05/01 07:40:26;;;;;;;26.23;20.20;;;11.40;99.90;;;;;;5179286;27;20871;-59
2022/05/01 07:42:53;;;;;;;21.77;18.20;;;11.60;99.90;;;;;;5179226;27;20838;-58
2022/05/01 07:45:20;;;;;;;23.10;20.10;;;11.70;99.90;;;;;;5178891;27;20996;-58
2022/05/01 07:47:48;;;;;;;21.93;19.23;;;11.60;99.90;;;;;;5178692;27;20815;-59
2022/05/01 07:50:17;;;;;;;25.10;19.63;;;11.70;99.90;;;;;;5178880;27;20446;-59
2022/05/01 07:52:45;;;;;;;22.53;19.27;;;11.80;99.90;;;;;;5179136;27;20438;-59
2022/05/01 07:55:13;;;;;;;26.60;20.13;;;12.00;99.90;;;;;;5178194;27;20450;-59
2022/05/01 07:57:40;;;;;;;21.70;17.43;;;12.10;99.90;;;;;;5178868;27;20447;-59
2022/05/01 08:00:08;;;;;;;21.40;17.30;;;12.40;99.90;;;;;;5178621;27;20631;-59
2022/05/01 08:04:27;;;;;;;20.37;16.40;;;12.20;99.90;;;;;;5178439;27;20538;-59
2022/05/01 08:05:23;;;;;;;25.17;19.90;;;12.30;99.90;;;;;;5178483;27;20890;-58
2022/05/01 08:07:52;;;;;;;21.93;17.00;;;12.40;99.90;;;;;;5178661;27;20464;-59
2022/05/01 08:10:19;;;;;;;20.07;17.47;;;12.50;99.90;;;;;;5178768;27;20439;-59
2022/05/01 08:12:47;;;;;;;23.97;16.60;;;12.50;99.90;;;;;;5178597;27;20535;-59
2022/05/01 08:15:17;;;;;;;21.67;16.10;;;12.60;99.90;;;;;;5178250;27;20819;-58
2022/05/01 08:17:44;;;;;;;19.07;15.70;;;12.50;99.90;;;;;;5178130;27;21007;-58
2022/05/01 08:23:07;;;;;;;20.27;17.23;;;12.20;99.90;;;;;;5178734;27;20459;-59
2022/05/01 08:25:35;;;;;;;23.53;17.10;;;12.40;99.90;;;;;;5178573;27;20431;-59
2022/05/01 08:28:02;;;;;;;19.07;15.93;;;12.40;99.90;;;;;;5177980;27;21033;-59
2022/05/01 08:30:30;;;;;;;20.30;16.20;;;12.40;99.90;;;;;;5178515;27;20478;-59
2022/05/01 08:32:57;;;;;;;18.03;14.83;;;12.20;99.90;;;;;;5178202;27;20841;-58
2022/05/01 08:35:24;;;;;;;18.43;16.20;;;12.60;99.90;;;;;;5177842;27;20448;-59
2022/05/01 08:37:51;;;;;;;17.70;15.43;;;12.70;99.90;;;;;;5178177;27;20547;-59
2022/05/01 08:40:21;;;;;;;22.50;17.00;;;12.50;99.90;;;;;;5177759;27;20444;-58
2022/05/01 08:42:51;;;;;;;19.73;16.53;;;12.70;99.90;;;;;;5177653;27;20938;-59
2022/05/01 08:45:25;;;;;;;18.93;16.33;;;12.80;99.90;;;;;;5177593;27;20937;-58
2022/05/01 08:48:01;;;;;;;24.80;18.83;;;13.10;99.90;;;;;;5177974;27;20825;-59
2022/05/01 08:50:28;;;;;;;18.33;16.40;;;13.30;99.90;;;;;;5177684;27;20435;-59
2022/05/01 08:53:00;;;;;;;27.37;19.27;;;13.30;99.90;;;;;;5177572;27;20443;-58
2022/05/01 08:55:29;;;;;;;20.67;16.00;;;13.30;99.90;;;;;;5177529;27;20436;-58
2022/05/01 08:57:57;;;;;;;20.63;17.37;;;13.30;99.90;;;;;;5177904;27;20487;-58
2022/05/01 09:00:26;;;;;;;20.47;16.90;;;13.40;99.90;;;;;;5177347;27;20450;-58
2022/05/01 09:02:54;;;;;;;20.07;17.93;;;13.40;99.90;;;;;;5177206;27;20439;-58
2022/05/01 09:05:21;;;;;;;19.37;16.60;;;13.30;99.90;;;;;;5177234;27;20454;-58
2022/05/01 09:07:48;;;;;;;19.90;16.80;;;13.70;99.90;;;;;;5176078;27;21009;-59
2022/05/01 09:10:16;;;;;;;19.50;16.17;;;14.00;99.90;;;;;;5177144;27;21030;-58
2022/05/01 09:12:49;;;;;;;22.13;17.40;;;13.90;99.90;;;;;;5177387;27;20477;-59
2022/05/01 09:15:28;;;;;;;20.97;17.00;;;13.30;99.90;;;;;;5177543;27;20813;-59
2022/05/01 09:18:03;;;;;;;18.97;15.43;;;13.70;99.90;;;;;;5177089;27;20962;-58
2022/05/01 09:20:31;;;;;;;20.47;15.80;;;13.60;99.90;;;;;;5177246;27;20447;-59
2022/05/01 09:23:00;;;;;;;22.23;17.17;;;13.50;99.90;;;;;;5177153;27;20781;-59
2022/05/01 09:25:29;;;;;;;19.57;16.07;;;13.70;99.90;;;;;;5176952;27;20535;-58
2022/05/01 09:27:59;;;;;;;19.07;16.03;;;13.80;99.90;;;;;;5176561;27;20574;-60
2022/05/01 09:30:33;;;;;;;18.47;16.47;;;14.20;99.90;;;;;;5176987;27;20448;-59
2022/05/01 09:33:01;;;;;;;17.00;15.20;;;14.40;99.90;;;;;;5177006;27;20443;-59
2022/05/01 09:35:31;;;;;;;18.27;15.00;;;14.70;99.90;;;;;;5177069;27;20450;-59
2022/05/01 09:38:14;;;;;;;20.70;15.57;;;14.80;99.90;;;;;;5176505;27;20581;-59
2022/05/01 09:40:42;;;;;;;18.70;16.00;;;15.20;99.90;;;;;;5176857;27;20434;-60
2022/05/01 09:43:30;;;;;;;15.87;14.23;;;15.60;99.90;;;;;;5176611;27;20439;-59
2022/05/01 09:46:12;;;;;;;19.13;15.23;;;15.30;99.90;;;;;;5176597;27;20411;-59
2022/05/01 09:48:39;;;;;;;16.47;14.60;;;15.10;99.90;;;;;;5176626;27;20503;-58
2022/05/01 09:51:15;;;;;;;16.73;14.60;;;15.20;99.90;;;;;;5176427;27;20531;-60
2022/05/01 09:53:43;;;;;;;16.40;13.63;;;14.90;99.90;;;;;;5176312;27;20886;-59
2022/05/01 09:56:10;;;;;;;17.73;14.60;;;15.20;99.90;;;;;;5176171;27;20792;-59
2022/05/01 09:58:40;;;;;;;17.77;12.77;;;15.30;99.90;;;;;;5176557;27;20464;-59
2022/05/01 10:01:12;;;;;;;15.23;13.07;;;16.00;99.90;;;;;;5176569;27;20448;-59
2022/05/01 10:03:46;;;;;;;14.33;12.57;;;16.60;99.90;;;;;;5176089;27;20475;-60
2022/05/01 10:06:15;;;;;;;15.57;13.97;;;17.50;99.90;;;;;;5176264;27;20890;-61
2022/05/01 10:08:43;;;;;;;16.10;14.40;;;16.70;99.90;;;;;;5176121;27;20966;-60
2022/05/01 10:11:14;;;;;;;16.63;13.10;;;16.50;99.90;;;;;;5176143;27;20513;-60
2022/05/01 10:13:43;;;;;;;15.37;12.60;;;16.60;99.90;;;;;;5176021;27;20432;-60
2022/05/01 10:16:11;;;;;;;16.90;13.50;;;16.80;99.90;;;;;;5175913;27;20451;-60
2022/05/01 10:18:40;;;;;;;19.30;13.97;;;17.00;99.90;;;;;;5175487;27;20633;-60
2022/05/01 10:21:08;;;;;;;15.40;13.63;;;16.90;99.90;;;;;;5175934;27;20526;-59
2022/05/01 10:23:36;;;;;;;13.53;11.83;;;16.30;99.90;;;;;;5176130;27;20470;-60
2022/05/01 10:26:09;;;;;;;14.30;11.23;;;15.70;99.90;;;;;;5175859;27;20480;-60
2022/05/01 10:29:22;;;;;;;13.90;12.07;;;15.80;99.90;;;;;;5134641;27;20981;-58
2022/05/01 10:32:21;;;;;;;13.90;11.90;;;15.50;99.90;;;;;;5113727;28;20427;-59
2022/05/01 10:35:25;;;;;;;15.33;13.73;;;15.60;99.90;;;;;;5113551;28;20459;-60
2022/05/01 10:38:17;;;;;;;14.40;12.27;;;15.40;99.90;;;;;;5097984;28;20557;-59
2022/05/01 10:40:49;;;;;;;14.80;13.20;;;15.10;99.90;;;;;;5094773;28;20546;-59
2022/05/01 10:43:27;;;;;;;15.60;13.70;;;15.00;99.90;;;;;;5114067;28;20450;-59
2022/05/01 10:45:56;;;;;;;14.40;12.90;;;15.10;99.90;;;;;;5113558;28;20433;-59
2022/05/01 10:48:34;;;;;;;12.87;11.10;;;15.40;99.90;;;;;;5113717;28;20824;-59
2022/05/01 10:51:42;;;;;;;15.37;12.80;;;15.20;99.90;;;;;;5113504;28;20422;-59
2022/05/01 10:54:38;;;;;;;13.43;12.03;;;15.40;99.90;;;;;;5113874;28;20441;-58
2022/05/01 10:57:16;;;;;;;16.60;12.43;;;15.80;99.90;;;;;;5113603;28;20511;-58
2022/05/01 10:59:50;;;;;;;16.00;14.37;;;15.70;99.90;;;;;;5113668;28;20458;-58
2022/05/01 11:02:35;;;;;;;14.43;12.20;;;15.50;99.90;;;;;;5113651;28;20433;-58
2022/05/01 11:05:03;;;;;;;14.83;13.17;;;15.50;99.90;;;;;;5113533;28;20493;-58
2022/05/01 11:07:31;;;;;;;18.70;13.27;;;15.60;99.90;;;;;;5113130;28;20453;-58
2022/05/01 11:10:01;;;;;;;14.80;13.30;;;15.50;99.90;;;;;;5113617;28;20496;-59
2022/05/01 11:12:30;;;;;;;13.97;12.03;;;15.50;99.90;;;;;;5113229;28;20443;-59
2022/05/01 11:14:59;;;;;;;17.07;11.97;;;15.30;99.90;;;;;;5113610;28;20811;-59
2022/05/01 11:17:52;;;;;;;15.23;11.67;;;15.50;99.90;;;;;;5113095;28;20933;-59
2022/05/01 11:20:35;;;;;;;14.10;12.60;;;15.50;99.90;;;;;;5113147;28;20434;-59
2022/05/01 11:23:29;;;;;;;13.97;12.57;;;15.80;99.90;;;;;;5113474;28;20501;-58
2022/05/01 11:26:17;;;;;;;15.27;13.20;;;15.60;99.90;;;;;;5113267;28;20537;-59
2022/05/01 11:28:52;;;;;;;13.47;11.60;;;15.60;99.90;;;;;;5113004;28;20494;-59
2022/05/01 11:31:46;;;;;;;13.17;11.70;;;15.80;99.90;;;;;;5115765;28;20426;-59
2022/05/01 11:34:54;;;;;;;14.53;10.93;;;16.00;99.90;;;;;;5116933;28;20439;-59
2022/05/01 11:37:23;;;;;;;17.30;13.93;;;15.70;99.90;;;;;;5116960;28;20950;-59
2022/05/01 11:40:24;;;;;;;15.83;13.93;;;15.80;99.90;;;;;;5116744;28;20455;-58
2022/05/01 11:42:52;;;;;;;14.90;12.67;;;15.90;99.90;;;;;;5116885;28;20893;-59
2022/05/01 11:45:20;;;;;;;16.43;12.57;;;15.90;99.90;;;;;;5116989;28;20492;-59
2022/05/01 11:47:53;;;;;;;16.57;12.73;;;15.90;99.90;;;;;;5116564;28;20466;-58
2022/05/01 11:50:25;;;;;;;12.60;11.30;;;16.10;99.90;;;;;;5117097;28;20419;-58
2022/05/01 11:52:54;;;;;;;14.80;12.40;;;16.40;99.50;;;;;;5116531;28;20433;-62
2022/05/01 12:02:24;;;;;;;13.00;11.50;;;16.50;99.80;;;;;;5116480;28;20949;-59
2022/05/01 12:03:40;;;;;;;13.33;11.40;;;16.30;99.70;;;;;;5116450;28;20410;-58
2022/05/01 12:06:08;;;;;;;13.60;12.20;;;16.50;99.50;;;;;;5116623;28;20446;-59
2022/05/01 12:08:49;;;;;;;15.10;11.93;;;16.40;99.30;;;;;;5116290;28;20470;-59
2022/05/01 12:11:28;;;;;;;12.70;10.93;;;16.20;98.80;;;;;;5116399;28;20789;-59
2022/05/01 12:14:05;;;;;;;13.43;11.57;;;16.10;99.00;;;;;;5116234;28;20833;-59
2022/05/01 12:16:34;;;;;;;13.17;11.47;;;16.00;99.30;;;;;;5116496;28;20526;-59
2022/05/01 12:19:01;;;;;;;12.83;11.63;;;16.00;99.30;;;;;;5116294;28;20497;-58
2022/05/01 12:21:35;;;;;;;12.10;10.90;;;15.80;99.70;;;;;;5116394;28;20458;-59
2022/05/01 12:24:03;;;;;;;12.50;11.20;;;15.80;99.90;;;;;;5116180;28;20431;-59
2022/05/01 12:26:32;;;;;;;14.50;12.57;;;15.50;99.40;;;;;;5121503;27;21902;-59
2022/05/01 12:28:59;;;;;;;14.80;12.83;;;15.60;99.90;;;;;;5157043;27;20959;-59
2022/05/01 12:31:27;;;;;;;14.40;13.00;;;15.60;99.90;;;;;;5157389;27;20424;-58
2022/05/01 12:33:55;;;;;;;15.27;13.50;;;15.60;99.90;;;;;;5157302;27;20536;-59
2022/05/01 12:37:20;;;;;;;13.50;12.10;;;16.10;99.90;;;;;;5157166;27;20535;-59
2022/05/01 12:45:36;;;;;;;12.80;11.03;;;16.80;99.50;;;;;;5156785;27;20475;-59
2022/05/01 12:48:05;;;;;;;14.93;11.23;;;16.80;99.30;;;;;;5156554;27;20461;-60
2022/05/01 12:50:37;;;;;;;13.37;12.03;;;16.60;99.90;;;;;;5156729;27;20456;-59
2022/05/01 12:53:24;;;;;;;14.27;12.70;;;16.50;99.00;;;;;;5156956;27;20430;-58
2022/05/01 12:55:52;;;;;;;12.93;10.90;;;16.40;99.00;;;;;;5156882;27;20528;-59
2022/05/01 12:58:27;;;;;;;13.10;11.70;;;16.30;98.80;;;;;;5156459;27;20496;-58
2022/05/01 13:00:55;;;;;;;14.73;11.67;;;16.80;99.90;;;;;;5156901;27;20424;-59
2022/05/01 13:03:25;;;;;;;13.10;10.77;;;17.70;99.10;;;;;;5156749;27;20441;-59
2022/05/01 13:06:07;;;;;;;11.47;9.17;;;18.50;97.60;;;;;;5156617;27;20515;-59
2022/05/01 13:08:37;;;;;;;14.20;10.37;;;19.00;98.20;;;;;;5156272;27;20464;-59
2022/05/01 13:11:20;;;;;;;13.20;11.63;;;19.50;96.40;;;;;;5156656;27;20429;-59